Sandanski, Bulgaria
Current Conditions -  °F | °C
As of 1:50 AM on Friday 19 Dec 2014 (Local Time) from LGTS Reporting Station
Moderate Fog Moderate Fog  
Wind Chill: 43°   Ceiling: 200
Heat Index: 43°   Visibility: 0.06mi
Dew Point: 41°   Wind: 3mph
Humidity: 93%   Direction: NA
Pressure: 30.15"   Gusts: NA
Location:  41.56°N, 23.29°E
Report Text: LGTS 182250Z VRB03KT 0100 R16/0450 R34/0500 FG OVC002 06/05 Q1021 NOSIG
Loading
Personal Weather Stations






























Interactive Weather Map New forecast layout! Learn more

10-Day Weather Forecast

Advertisements
Track Severe Weather on mobile